sensor_id;sensor_type;location;lat;lon;timestamp;P1;durP1;ratioP1;P2;durP2;ratioP2
78929;SDS011;68329;47.664;9.356;2023-03-04T00:02:24;9.63;;;6.22;;
78929;SDS011;68329;47.664;9.356;2023-03-04T00:04:50;8.80;;;6.20;;
78929;SDS011;68329;47.664;9.356;2023-03-04T00:07:16;8.93;;;6.03;;
78929;SDS011;68329;47.664;9.356;2023-03-04T00:09:43;10.70;;;6.50;;
78929;SDS011;68329;47.664;9.356;2023-03-04T00:12:09;8.88;;;5.78;;
78929;SDS011;68329;47.664;9.356;2023-03-04T00:17:01;9.55;;;6.45;;
78929;SDS011;68329;47.664;9.356;2023-03-04T00:19:28;8.45;;;6.20;;
78929;SDS011;68329;47.664;9.356;2023-03-04T00:21:54;9.75;;;6.32;;
78929;SDS011;68329;47.664;9.356;2023-03-04T00:24:20;8.13;;;6.07;;
78929;SDS011;68329;47.664;9.356;2023-03-04T00:26:46;7.88;;;6.00;;
78929;SDS011;68329;47.664;9.356;2023-03-04T00:29:12;8.07;;;6.45;;
78929;SDS011;68329;47.664;9.356;2023-03-04T00:31:38;7.30;;;5.97;;
78929;SDS011;68329;47.664;9.356;2023-03-04T00:34:04;8.40;;;6.45;;
78929;SDS011;68329;47.664;9.356;2023-03-04T00:36:30;7.57;;;5.82;;
78929;SDS011;68329;47.664;9.356;2023-03-04T00:38:56;8.15;;;6.20;;
78929;SDS011;68329;47.664;9.356;2023-03-04T00:41:22;7.53;;;6.03;;
78929;SDS011;68329;47.664;9.356;2023-03-04T00:46:14;6.55;;;5.90;;
78929;SDS011;68329;47.664;9.356;2023-03-04T00:48:40;7.47;;;5.78;;
78929;SDS011;68329;47.664;9.356;2023-03-04T00:51:06;6.97;;;6.28;;
78929;SDS011;68329;47.664;9.356;2023-03-04T00:55:58;6.63;;;5.68;;
78929;SDS011;68329;47.664;9.356;2023-03-04T00:58:24;7.68;;;6.05;;
78929;SDS011;68329;47.664;9.356;2023-03-04T01:00:50;6.65;;;5.93;;
78929;SDS011;68329;47.664;9.356;2023-03-04T01:03:16;7.13;;;5.57;;
78929;SDS011;68329;47.664;9.356;2023-03-04T01:05:42;7.47;;;6.05;;
78929;SDS011;68329;47.664;9.356;2023-03-04T01:08:08;6.65;;;5.95;;
78929;SDS011;68329;47.664;9.356;2023-03-04T01:10:34;7.63;;;6.22;;
78929;SDS011;68329;47.664;9.356;2023-03-04T01:13:00;7.78;;;6.10;;
78929;SDS011;68329;47.664;9.356;2023-03-04T01:15:26;7.80;;;6.32;;
78929;SDS011;68329;47.664;9.356;2023-03-04T01:20:18;6.82;;;5.93;;
78929;SDS011;68329;47.664;9.356;2023-03-04T01:22:44;6.15;;;5.55;;
78929;SDS011;68329;47.664;9.356;2023-03-04T01:25:10;6.97;;;6.00;;
78929;SDS011;68329;47.664;9.356;2023-03-04T01:27:36;8.35;;;5.90;;
78929;SDS011;68329;47.664;9.356;2023-03-04T01:30:03;7.63;;;5.63;;
78929;SDS011;68329;47.664;9.356;2023-03-04T01:32:29;6.85;;;5.75;;
78929;SDS011;68329;47.664;9.356;2023-03-04T01:34:55;7.18;;;5.95;;
78929;SDS011;68329;47.664;9.356;2023-03-04T01:37:21;8.18;;;5.85;;
78929;SDS011;68329;47.664;9.356;2023-03-04T01:39:47;8.32;;;5.93;;
78929;SDS011;68329;47.664;9.356;2023-03-04T01:42:20;7.65;;;5.85;;
78929;SDS011;68329;47.664;9.356;2023-03-04T01:44:47;6.57;;;5.45;;
78929;SDS011;68329;47.664;9.356;2023-03-04T01:47:13;6.63;;;5.97;;
78929;SDS011;68329;47.664;9.356;2023-03-04T01:49:39;6.55;;;5.85;;
78929;SDS011;68329;47.664;9.356;2023-03-04T01:52:08;6.18;;;5.57;;
78929;SDS011;68329;47.664;9.356;2023-03-04T01:54:35;6.18;;;5.40;;
78929;SDS011;68329;47.664;9.356;2023-03-04T01:57:01;6.90;;;5.97;;
78929;SDS011;68329;47.664;9.356;2023-03-04T01:59:29;7.00;;;5.47;;
78929;SDS011;68329;47.664;9.356;2023-03-04T02:01:57;7.28;;;5.50;;
78929;SDS011;68329;47.664;9.356;2023-03-04T02:04:32;6.22;;;5.63;;
78929;SDS011;68329;47.664;9.356;2023-03-04T02:06:59;6.55;;;5.85;;
78929;SDS011;68329;47.664;9.356;2023-03-04T02:09:26;6.22;;;5.50;;
78929;SDS011;68329;47.664;9.356;2023-03-04T02:11:53;6.30;;;5.57;;
78929;SDS011;68329;47.664;9.356;2023-03-04T02:14:19;6.30;;;5.70;;
78929;SDS011;68329;47.664;9.356;2023-03-04T02:19:34;5.95;;;5.35;;
78929;SDS011;68329;47.664;9.356;2023-03-04T02:22:03;7.10;;;5.50;;
78929;SDS011;68329;47.664;9.356;2023-03-04T02:26:58;6.93;;;5.85;;
78929;SDS011;68329;47.664;9.356;2023-03-04T02:29:24;6.13;;;5.53;;
78929;SDS011;68329;47.664;9.356;2023-03-04T02:34:20;6.90;;;5.68;;
78929;SDS011;68329;47.664;9.356;2023-03-04T02:36:47;6.63;;;5.68;;
78929;SDS011;68329;47.664;9.356;2023-03-04T02:41:46;6.00;;;5.40;;
78929;SDS011;68329;47.664;9.356;2023-03-04T02:46:41;6.05;;;5.45;;
78929;SDS011;68329;47.664;9.356;2023-03-04T02:49:07;6.38;;;5.78;;
78929;SDS011;68329;47.664;9.356;2023-03-04T02:51:33;6.45;;;5.85;;
78929;SDS011;68329;47.664;9.356;2023-03-04T02:53:59;6.70;;;6.03;;
78929;SDS011;68329;47.664;9.356;2023-03-04T02:56:25;5.70;;;5.13;;
78929;SDS011;68329;47.664;9.356;2023-03-04T02:58:51;6.47;;;5.80;;
78929;SDS011;68329;47.664;9.356;2023-03-04T03:01:17;7.05;;;6.35;;
78929;SDS011;68329;47.664;9.356;2023-03-04T03:03:43;6.95;;;6.15;;
78929;SDS011;68329;47.664;9.356;2023-03-04T03:06:09;6.50;;;5.70;;
78929;SDS011;68329;47.664;9.356;2023-03-04T03:08:35;7.03;;;5.95;;
78929;SDS011;68329;47.664;9.356;2023-03-04T03:11:01;6.70;;;6.00;;
78929;SDS011;68329;47.664;9.356;2023-03-04T03:13:27;6.72;;;6.03;;
78929;SDS011;68329;47.664;9.356;2023-03-04T03:15:54;6.38;;;5.78;;
78929;SDS011;68329;47.664;9.356;2023-03-04T03:18:20;5.97;;;5.38;;
78929;SDS011;68329;47.664;9.356;2023-03-04T03:20:45;6.45;;;5.78;;
78929;SDS011;68329;47.664;9.356;2023-03-04T03:23:12;6.53;;;5.90;;
78929;SDS011;68329;47.664;9.356;2023-03-04T03:25:38;6.50;;;5.78;;
78929;SDS011;68329;47.664;9.356;2023-03-04T03:28:04;6.40;;;5.80;;
78929;SDS011;68329;47.664;9.356;2023-03-04T03:30:30;5.93;;;5.43;;
78929;SDS011;68329;47.664;9.356;2023-03-04T03:32:56;7.78;;;6.13;;
78929;SDS011;68329;47.664;9.356;2023-03-04T03:35:22;6.63;;;5.50;;
78929;SDS011;68329;47.664;9.356;2023-03-04T03:37:48;6.35;;;5.75;;
78929;SDS011;68329;47.664;9.356;2023-03-04T03:40:14;6.07;;;5.47;;
78929;SDS011;68329;47.664;9.356;2023-03-04T03:42:40;6.03;;;5.28;;
78929;SDS011;68329;47.664;9.356;2023-03-04T03:45:06;5.95;;;5.35;;
78929;SDS011;68329;47.664;9.356;2023-03-04T03:47:32;6.70;;;5.90;;
78929;SDS011;68329;47.664;9.356;2023-03-04T03:49:58;6.32;;;5.72;;
78929;SDS011;68329;47.664;9.356;2023-03-04T03:52:24;6.57;;;5.72;;
78929;SDS011;68329;47.664;9.356;2023-03-04T03:54:50;7.07;;;6.38;;
78929;SDS011;68329;47.664;9.356;2023-03-04T03:57:16;6.18;;;5.53;;
78929;SDS011;68329;47.664;9.356;2023-03-04T03:59:42;7.20;;;6.05;;
78929;SDS011;68329;47.664;9.356;2023-03-04T04:02:08;6.03;;;5.53;;
78929;SDS011;68329;47.664;9.356;2023-03-04T04:04:34;6.50;;;5.80;;
78929;SDS011;68329;47.664;9.356;2023-03-04T04:07:00;6.32;;;5.45;;
78929;SDS011;68329;47.664;9.356;2023-03-04T04:09:26;6.32;;;5.70;;
78929;SDS011;68329;47.664;9.356;2023-03-04T04:11:52;6.45;;;5.78;;
78929;SDS011;68329;47.664;9.356;2023-03-04T04:14:18;6.63;;;5.88;;
78929;SDS011;68329;47.664;9.356;2023-03-04T04:16:44;6.15;;;5.55;;
78929;SDS011;68329;47.664;9.356;2023-03-04T04:19:17;7.93;;;6.38;;
78929;SDS011;68329;47.664;9.356;2023-03-04T04:21:43;6.65;;;5.95;;
78929;SDS011;68329;47.664;9.356;2023-03-04T04:24:09;7.07;;;6.15;;
78929;SDS011;68329;47.664;9.356;2023-03-04T04:26:35;6.88;;;5.90;;
78929;SDS011;68329;47.664;9.356;2023-03-04T04:29:01;6.45;;;5.85;;
78929;SDS011;68329;47.664;9.356;2023-03-04T04:31:27;6.55;;;5.72;;
78929;SDS011;68329;47.664;9.356;2023-03-04T04:33:53;7.03;;;6.35;;
78929;SDS011;68329;47.664;9.356;2023-03-04T04:36:19;6.70;;;6.00;;
78929;SDS011;68329;47.664;9.356;2023-03-04T04:38:45;6.25;;;5.65;;
78929;SDS011;68329;47.664;9.356;2023-03-04T04:41:20;6.32;;;5.45;;
78929;SDS011;68329;47.664;9.356;2023-03-04T04:43:46;6.38;;;5.78;;
78929;SDS011;68329;47.664;9.356;2023-03-04T04:46:12;8.75;;;6.78;;
78929;SDS011;68329;47.664;9.356;2023-03-04T04:51:04;6.35;;;5.75;;
78929;SDS011;68329;47.664;9.356;2023-03-04T04:53:30;6.30;;;5.65;;
78929;SDS011;68329;47.664;9.356;2023-03-04T04:55:56;6.78;;;6.18;;
78929;SDS011;68329;47.664;9.356;2023-03-04T04:58:22;7.05;;;6.35;;
78929;SDS011;68329;47.664;9.356;2023-03-04T05:00:48;6.65;;;5.95;;
78929;SDS011;68329;47.664;9.356;2023-03-04T05:03:14;6.88;;;6.18;;
78929;SDS011;68329;47.664;9.356;2023-03-04T05:05:41;6.75;;;5.78;;
78929;SDS011;68329;47.664;9.356;2023-03-04T05:08:07;6.60;;;6.00;;
78929;SDS011;68329;47.664;9.356;2023-03-04T05:10:33;6.93;;;5.90;;
78929;SDS011;68329;47.664;9.356;2023-03-04T05:12:59;6.60;;;6.00;;
78929;SDS011;68329;47.664;9.356;2023-03-04T05:15:25;7.50;;;6.68;;
78929;SDS011;68329;47.664;9.356;2023-03-04T05:17:51;6.45;;;5.82;;
78929;SDS011;68329;47.664;9.356;2023-03-04T05:20:17;5.90;;;5.40;;
78929;SDS011;68329;47.664;9.356;2023-03-04T05:22:43;6.68;;;5.97;;
78929;SDS011;68329;47.664;9.356;2023-03-04T05:25:09;6.18;;;5.57;;
78929;SDS011;68329;47.664;9.356;2023-03-04T05:27:35;6.30;;;5.70;;
78929;SDS011;68329;47.664;9.356;2023-03-04T05:30:01;6.25;;;5.50;;
78929;SDS011;68329;47.664;9.356;2023-03-04T05:32:27;6.18;;;5.45;;
78929;SDS011;68329;47.664;9.356;2023-03-04T05:34:53;6.18;;;5.53;;
78929;SDS011;68329;47.664;9.356;2023-03-04T05:37:19;6.65;;;6.05;;
78929;SDS011;68329;47.664;9.356;2023-03-04T05:39:45;6.15;;;5.55;;
78929;SDS011;68329;47.664;9.356;2023-03-04T05:42:11;6.43;;;5.82;;
78929;SDS011;68329;47.664;9.356;2023-03-04T05:44:37;6.22;;;5.63;;
78929;SDS011;68329;47.664;9.356;2023-03-04T05:47:02;6.47;;;5.88;;
78929;SDS011;68329;47.664;9.356;2023-03-04T05:49:28;6.55;;;5.95;;
78929;SDS011;68329;47.664;9.356;2023-03-04T05:51:55;6.35;;;5.78;;
78929;SDS011;68329;47.664;9.356;2023-03-04T05:54:20;6.75;;;5.95;;
78929;SDS011;68329;47.664;9.356;2023-03-04T05:56:47;5.88;;;5.32;;
78929;SDS011;68329;47.664;9.356;2023-03-04T05:59:13;6.70;;;6.10;;
78929;SDS011;68329;47.664;9.356;2023-03-04T06:01:44;6.43;;;5.82;;
78929;SDS011;68329;47.664;9.356;2023-03-04T06:04:10;6.43;;;5.82;;
78929;SDS011;68329;47.664;9.356;2023-03-04T06:06:36;6.13;;;5.53;;
78929;SDS011;68329;47.664;9.356;2023-03-04T06:09:02;5.90;;;5.30;;
78929;SDS011;68329;47.664;9.356;2023-03-04T06:11:28;5.97;;;5.38;;
78929;SDS011;68329;47.664;9.356;2023-03-04T06:13:54;5.95;;;5.20;;
78929;SDS011;68329;47.664;9.356;2023-03-04T06:16:20;6.07;;;5.50;;
78929;SDS011;68329;47.664;9.356;2023-03-04T06:18:46;5.68;;;5.22;;
78929;SDS011;68329;47.664;9.356;2023-03-04T06:21:12;5.75;;;5.20;;
78929;SDS011;68329;47.664;9.356;2023-03-04T06:23:38;6.22;;;5.63;;
78929;SDS011;68329;47.664;9.356;2023-03-04T06:26:05;6.53;;;5.82;;
78929;SDS011;68329;47.664;9.356;2023-03-04T06:28:35;5.85;;;5.35;;
78929;SDS011;68329;47.664;9.356;2023-03-04T06:31:01;6.15;;;5.57;;
78929;SDS011;68329;47.664;9.356;2023-03-04T06:33:27;5.70;;;5.03;;
78929;SDS011;68329;47.664;9.356;2023-03-04T06:35:54;6.22;;;5.63;;
78929;SDS011;68329;47.664;9.356;2023-03-04T06:38:21;5.43;;;4.93;;
78929;SDS011;68329;47.664;9.356;2023-03-04T06:40:47;6.43;;;5.82;;
78929;SDS011;68329;47.664;9.356;2023-03-04T06:43:13;6.32;;;5.72;;
78929;SDS011;68329;47.664;9.356;2023-03-04T06:45:39;6.47;;;5.88;;
78929;SDS011;68329;47.664;9.356;2023-03-04T06:48:05;6.30;;;5.75;;
78929;SDS011;68329;47.664;9.356;2023-03-04T06:52:57;5.97;;;5.38;;
78929;SDS011;68329;47.664;9.356;2023-03-04T06:55:23;5.53;;;5.03;;
78929;SDS011;68329;47.664;9.356;2023-03-04T06:57:49;5.80;;;5.28;;
78929;SDS011;68329;47.664;9.356;2023-03-04T07:00:15;6.13;;;5.38;;
78929;SDS011;68329;47.664;9.356;2023-03-04T07:02:41;7.43;;;5.85;;
78929;SDS011;68329;47.664;9.356;2023-03-04T07:05:08;6.50;;;5.55;;
78929;SDS011;68329;47.664;9.356;2023-03-04T07:07:34;6.85;;;6.07;;
78929;SDS011;68329;47.664;9.356;2023-03-04T07:10:00;7.85;;;6.30;;
78929;SDS011;68329;47.664;9.356;2023-03-04T07:12:26;7.03;;;6.18;;
78929;SDS011;68329;47.664;9.356;2023-03-04T07:14:52;8.25;;;6.28;;
78929;SDS011;68329;47.664;9.356;2023-03-04T07:17:18;6.97;;;6.00;;
78929;SDS011;68329;47.664;9.356;2023-03-04T07:19:44;11.10;;;6.82;;
78929;SDS011;68329;47.664;9.356;2023-03-04T07:22:10;8.23;;;6.38;;
78929;SDS011;68329;47.664;9.356;2023-03-04T07:24:36;10.90;;;7.18;;
78929;SDS011;68329;47.664;9.356;2023-03-04T07:27:02;11.20;;;8.70;;
78929;SDS011;68329;47.664;9.356;2023-03-04T07:29:28;13.05;;;8.48;;
78929;SDS011;68329;47.664;9.356;2023-03-04T07:31:54;10.73;;;8.73;;
78929;SDS011;68329;47.664;9.356;2023-03-04T07:34:20;12.68;;;9.35;;
78929;SDS011;68329;47.664;9.356;2023-03-04T07:36:46;12.35;;;8.88;;
78929;SDS011;68329;47.664;9.356;2023-03-04T07:41:38;9.88;;;7.47;;
78929;SDS011;68329;47.664;9.356;2023-03-04T07:44:05;13.15;;;8.30;;
78929;SDS011;68329;47.664;9.356;2023-03-04T07:46:31;10.50;;;8.15;;
78929;SDS011;68329;47.664;9.356;2023-03-04T07:48:57;10.60;;;7.35;;
78929;SDS011;68329;47.664;9.356;2023-03-04T07:51:24;11.27;;;8.63;;
78929;SDS011;68329;47.664;9.356;2023-03-04T07:53:52;24.40;;;19.25;;
78929;SDS011;68329;47.664;9.356;2023-03-04T07:56:19;55.05;;;43.03;;
78929;SDS011;68329;47.664;9.356;2023-03-04T07:58:45;61.35;;;49.80;;
78929;SDS011;68329;47.664;9.356;2023-03-04T08:01:12;72.72;;;56.72;;
78929;SDS011;68329;47.664;9.356;2023-03-04T08:03:38;73.53;;;58.67;;
78929;SDS011;68329;47.664;9.356;2023-03-04T08:08:30;80.38;;;67.53;;
78929;SDS011;68329;47.664;9.356;2023-03-04T08:13:22;80.45;;;62.83;;
78929;SDS011;68329;47.664;9.356;2023-03-04T08:15:48;74.68;;;63.15;;
78929;SDS011;68329;47.664;9.356;2023-03-04T08:18:14;72.35;;;57.55;;
78929;SDS011;68329;47.664;9.356;2023-03-04T08:20:41;71.65;;;59.53;;
78929;SDS011;68329;47.664;9.356;2023-03-04T08:23:08;70.90;;;58.78;;
78929;SDS011;68329;47.664;9.356;2023-03-04T08:25:36;68.10;;;56.80;;
78929;SDS011;68329;47.664;9.356;2023-03-04T08:28:03;60.13;;;49.75;;
78929;SDS011;68329;47.664;9.356;2023-03-04T08:30:29;58.75;;;48.75;;
78929;SDS011;68329;47.664;9.356;2023-03-04T08:32:55;61.80;;;49.78;;
78929;SDS011;68329;47.664;9.356;2023-03-04T08:35:21;52.58;;;45.38;;
78929;SDS011;68329;47.664;9.356;2023-03-04T08:37:47;51.50;;;42.55;;
78929;SDS011;68329;47.664;9.356;2023-03-04T08:40:13;51.78;;;42.63;;
78929;SDS011;68329;47.664;9.356;2023-03-04T08:42:39;47.95;;;39.50;;
78929;SDS011;68329;47.664;9.356;2023-03-04T08:45:05;46.60;;;40.50;;
78929;SDS011;68329;47.664;9.356;2023-03-04T08:47:31;44.35;;;37.25;;
78929;SDS011;68329;47.664;9.356;2023-03-04T08:49:57;43.35;;;35.45;;
78929;SDS011;68329;47.664;9.356;2023-03-04T08:52:24;45.53;;;33.45;;
78929;SDS011;68329;47.664;9.356;2023-03-04T08:54:50;44.45;;;33.90;;
78929;SDS011;68329;47.664;9.356;2023-03-04T08:57:16;36.90;;;29.85;;
78929;SDS011;68329;47.664;9.356;2023-03-04T08:59:42;38.15;;;29.25;;
78929;SDS011;68329;47.664;9.356;2023-03-04T09:02:08;38.55;;;29.33;;
78929;SDS011;68329;47.664;9.356;2023-03-04T09:04:34;36.25;;;27.08;;
78929;SDS011;68329;47.664;9.356;2023-03-04T09:07:01;35.88;;;27.95;;
78929;SDS011;68329;47.664;9.356;2023-03-04T09:11:53;32.08;;;25.33;;
78929;SDS011;68329;47.664;9.356;2023-03-04T09:14:19;35.90;;;28.15;;
78929;SDS011;68329;47.664;9.356;2023-03-04T09:16:45;36.08;;;26.55;;
78929;SDS011;68329;47.664;9.356;2023-03-04T09:19:11;34.03;;;24.67;;
78929;SDS011;68329;47.664;9.356;2023-03-04T09:21:37;33.13;;;25.30;;
78929;SDS011;68329;47.664;9.356;2023-03-04T09:24:03;33.38;;;24.77;;
78929;SDS011;68329;47.664;9.356;2023-03-04T09:26:29;35.05;;;24.92;;
78929;SDS011;68329;47.664;9.356;2023-03-04T09:28:56;33.40;;;24.77;;
78929;SDS011;68329;47.664;9.356;2023-03-04T09:31:23;31.40;;;22.83;;
78929;SDS011;68329;47.664;9.356;2023-03-04T09:33:50;29.52;;;22.38;;
78929;SDS011;68329;47.664;9.356;2023-03-04T09:36:16;29.98;;;23.00;;
78929;SDS011;68329;47.664;9.356;2023-03-04T09:38:42;31.70;;;23.50;;
78929;SDS011;68329;47.664;9.356;2023-03-04T09:41:11;31.38;;;21.60;;
78929;SDS011;68329;47.664;9.356;2023-03-04T09:43:40;29.70;;;22.27;;
78929;SDS011;68329;47.664;9.356;2023-03-04T09:48:38;29.25;;;19.90;;
78929;SDS011;68329;47.664;9.356;2023-03-04T09:51:07;25.45;;;19.70;;
78929;SDS011;68329;47.664;9.356;2023-03-04T09:56:01;29.83;;;19.50;;
78929;SDS011;68329;47.664;9.356;2023-03-04T09:58:35;27.52;;;19.63;;
78929;SDS011;68329;47.664;9.356;2023-03-04T10:03:33;29.75;;;21.00;;
78929;SDS011;68329;47.664;9.356;2023-03-04T10:06:05;29.00;;;20.08;;
78929;SDS011;68329;47.664;9.356;2023-03-04T10:08:33;26.67;;;18.80;;
78929;SDS011;68329;47.664;9.356;2023-03-04T10:11:02;25.77;;;18.33;;
78929;SDS011;68329;47.664;9.356;2023-03-04T10:13:33;27.50;;;17.77;;
78929;SDS011;68329;47.664;9.356;2023-03-04T10:16:01;28.20;;;17.98;;
78929;SDS011;68329;47.664;9.356;2023-03-04T10:18:30;25.55;;;17.33;;
78929;SDS011;68329;47.664;9.356;2023-03-04T10:21:12;25.77;;;18.25;;
78929;SDS011;68329;47.664;9.356;2023-03-04T10:23:42;24.13;;;17.02;;
78929;SDS011;68329;47.664;9.356;2023-03-04T10:26:12;26.08;;;17.90;;
78929;SDS011;68329;47.664;9.356;2023-03-04T10:28:39;24.45;;;17.15;;
78929;SDS011;68329;47.664;9.356;2023-03-04T10:33:50;20.33;;;16.42;;
78929;SDS011;68329;47.664;9.356;2023-03-04T10:41:24;21.73;;;15.63;;
78929;SDS011;68329;47.664;9.356;2023-03-04T10:46:35;20.98;;;15.13;;
78929;SDS011;68329;47.664;9.356;2023-03-04T10:49:02;20.33;;;15.30;;
78929;SDS011;68329;47.664;9.356;2023-03-04T10:51:28;18.40;;;14.63;;
78929;SDS011;68329;47.664;9.356;2023-03-04T10:53:56;20.58;;;15.07;;
78929;SDS011;68329;47.664;9.356;2023-03-04T10:56:39;22.17;;;15.15;;
78929;SDS011;68329;47.664;9.356;2023-03-04T11:01:54;20.52;;;13.60;;
78929;SDS011;68329;47.664;9.356;2023-03-04T11:04:22;20.30;;;14.32;;
78929;SDS011;68329;47.664;9.356;2023-03-04T11:06:49;21.98;;;14.38;;
78929;SDS011;68329;47.664;9.356;2023-03-04T11:09:33;19.45;;;14.18;;
78929;SDS011;68329;47.664;9.356;2023-03-04T11:12:00;20.95;;;13.90;;
78929;SDS011;68329;47.664;9.356;2023-03-04T11:14:29;23.95;;;14.77;;
78929;SDS011;68329;47.664;9.356;2023-03-04T11:16:57;32.67;;;16.73;;
78929;SDS011;68329;47.664;9.356;2023-03-04T11:19:24;32.63;;;16.80;;
78929;SDS011;68329;47.664;9.356;2023-03-04T11:21:52;33.30;;;17.35;;
78929;SDS011;68329;47.664;9.356;2023-03-04T11:24:29;35.13;;;17.10;;
78929;SDS011;68329;47.664;9.356;2023-03-04T11:26:58;30.55;;;16.55;;
78929;SDS011;68329;47.664;9.356;2023-03-04T11:34:36;31.30;;;16.05;;
78929;SDS011;68329;47.664;9.356;2023-03-04T11:39:46;31.88;;;16.55;;
78929;SDS011;68329;47.664;9.356;2023-03-04T11:44:57;24.55;;;14.65;;
78929;SDS011;68329;47.664;9.356;2023-03-04T11:48:11;25.45;;;14.63;;
78929;SDS011;68329;47.664;9.356;2023-03-04T11:52:54;26.55;;;15.18;;
78929;SDS011;68329;47.664;9.356;2023-03-04T12:06:17;23.88;;;14.15;;
78929;SDS011;68329;47.664;9.356;2023-03-04T12:11:37;20.45;;;13.90;;
78929;SDS011;68329;47.664;9.356;2023-03-04T12:14:19;18.85;;;13.30;;
78929;SDS011;68329;47.664;9.356;2023-03-04T12:27:29;21.00;;;13.77;;
78929;SDS011;68329;47.664;9.356;2023-03-04T12:29:59;20.55;;;13.25;;
78929;SDS011;68329;47.664;9.356;2023-03-04T12:32:33;17.65;;;13.35;;
78929;SDS011;68329;47.664;9.356;2023-03-04T12:37:51;18.77;;;12.88;;
78929;SDS011;68329;47.664;9.356;2023-03-04T12:51:08;18.08;;;11.73;;
78929;SDS011;68329;47.664;9.356;2023-03-04T12:59:05;22.42;;;12.80;;
78929;SDS011;68329;47.664;9.356;2023-03-04T13:01:39;16.75;;;11.80;;
78929;SDS011;68329;47.664;9.356;2023-03-04T13:09:27;14.40;;;11.10;;
78929;SDS011;68329;47.664;9.356;2023-03-04T13:12:01;14.25;;;10.88;;
78929;SDS011;68329;47.664;9.356;2023-03-04T13:14:28;13.50;;;11.10;;
78929;SDS011;68329;47.664;9.356;2023-03-04T13:16:55;14.50;;;10.90;;
78929;SDS011;68329;47.664;9.356;2023-03-04T13:19:41;14.10;;;10.73;;
78929;SDS011;68329;47.664;9.356;2023-03-04T13:22:28;15.10;;;10.50;;
78929;SDS011;68329;47.664;9.356;2023-03-04T13:24:55;15.95;;;11.10;;
78929;SDS011;68329;47.664;9.356;2023-03-04T13:30:37;12.88;;;10.43;;
78929;SDS011;68329;47.664;9.356;2023-03-04T13:32:52;14.88;;;11.77;;
78929;SDS011;68329;47.664;9.356;2023-03-04T13:38:12;13.18;;;10.45;;
78929;SDS011;68329;47.664;9.356;2023-03-04T13:43:36;27.30;;;20.15;;
78929;SDS011;68329;47.664;9.356;2023-03-04T13:53:48;31.70;;;25.45;;
78929;SDS011;68329;47.664;9.356;2023-03-04T13:58:43;23.55;;;17.73;;
78929;SDS011;68329;47.664;9.356;2023-03-04T14:01:19;21.30;;;15.45;;
78929;SDS011;68329;47.664;9.356;2023-03-04T14:03:46;18.40;;;14.02;;
78929;SDS011;68329;47.664;9.356;2023-03-04T14:08:42;14.50;;;12.00;;
78929;SDS011;68329;47.664;9.356;2023-03-04T14:11:24;15.15;;;11.23;;
78929;SDS011;68329;47.664;9.356;2023-03-04T14:13:51;14.93;;;10.50;;
78929;SDS011;68329;47.664;9.356;2023-03-04T14:16:18;11.07;;;9.65;;
78929;SDS011;68329;47.664;9.356;2023-03-04T14:18:45;12.75;;;8.90;;
78929;SDS011;68329;47.664;9.356;2023-03-04T14:21:13;10.93;;;9.35;;
78929;SDS011;68329;47.664;9.356;2023-03-04T14:23:39;11.75;;;9.48;;
78929;SDS011;68329;47.664;9.356;2023-03-04T14:26:06;9.73;;;8.68;;
78929;SDS011;68329;47.664;9.356;2023-03-04T14:28:33;10.77;;;8.80;;
78929;SDS011;68329;47.664;9.356;2023-03-04T14:31:09;11.70;;;8.32;;
78929;SDS011;68329;47.664;9.356;2023-03-04T14:33:42;9.82;;;8.80;;
78929;SDS011;68329;47.664;9.356;2023-03-04T14:36:13;11.20;;;9.15;;
78929;SDS011;68329;47.664;9.356;2023-03-04T14:38:39;10.23;;;8.63;;
78929;SDS011;68329;47.664;9.356;2023-03-04T14:41:09;10.02;;;8.20;;
78929;SDS011;68329;47.664;9.356;2023-03-04T14:43:41;10.07;;;9.07;;
78929;SDS011;68329;47.664;9.356;2023-03-04T14:46:11;10.85;;;8.60;;
78929;SDS011;68329;47.664;9.356;2023-03-04T14:48:38;9.02;;;7.95;;
78929;SDS011;68329;47.664;9.356;2023-03-04T14:51:04;9.88;;;8.40;;
78929;SDS011;68329;47.664;9.356;2023-03-04T14:53:32;8.45;;;7.53;;
78929;SDS011;68329;47.664;9.356;2023-03-04T14:56:02;8.52;;;7.40;;
78929;SDS011;68329;47.664;9.356;2023-03-04T14:58:30;8.90;;;7.95;;
78929;SDS011;68329;47.664;9.356;2023-03-04T15:01:03;9.07;;;8.13;;
78929;SDS011;68329;47.664;9.356;2023-03-04T15:03:29;10.52;;;8.68;;
78929;SDS011;68329;47.664;9.356;2023-03-04T15:06:05;9.23;;;8.32;;
78929;SDS011;68329;47.664;9.356;2023-03-04T15:08:36;8.90;;;7.90;;
78929;SDS011;68329;47.664;9.356;2023-03-04T15:11:03;8.50;;;7.60;;
78929;SDS011;68329;47.664;9.356;2023-03-04T15:13:37;8.55;;;7.68;;
78929;SDS011;68329;47.664;9.356;2023-03-04T15:16:03;8.90;;;8.02;;
78929;SDS011;68329;47.664;9.356;2023-03-04T15:18:29;10.00;;;8.38;;
78929;SDS011;68329;47.664;9.356;2023-03-04T15:23:22;8.18;;;7.43;;
78929;SDS011;68329;47.664;9.356;2023-03-04T15:28:17;10.55;;;7.40;;
78929;SDS011;68329;47.664;9.356;2023-03-04T15:30:43;10.32;;;7.78;;
78929;SDS011;68329;47.664;9.356;2023-03-04T15:33:10;9.88;;;7.80;;
78929;SDS011;68329;47.664;9.356;2023-03-04T15:35:36;9.52;;;8.35;;
78929;SDS011;68329;47.664;9.356;2023-03-04T15:38:04;9.30;;;7.93;;
78929;SDS011;68329;47.664;9.356;2023-03-04T15:42:58;9.63;;;8.52;;
78929;SDS011;68329;47.664;9.356;2023-03-04T15:45:26;10.65;;;8.60;;
78929;SDS011;68329;47.664;9.356;2023-03-04T15:47:52;10.60;;;8.50;;
78929;SDS011;68329;47.664;9.356;2023-03-04T15:52:44;10.90;;;8.52;;
78929;SDS011;68329;47.664;9.356;2023-03-04T15:55:14;10.77;;;8.82;;
78929;SDS011;68329;47.664;9.356;2023-03-04T15:57:41;40.85;;;37.40;;
78929;SDS011;68329;47.664;9.356;2023-03-04T16:00:09;43.80;;;38.15;;
78929;SDS011;68329;47.664;9.356;2023-03-04T16:02:35;56.08;;;43.85;;
78929;SDS011;68329;47.664;9.356;2023-03-04T16:05:01;34.47;;;25.58;;
78929;SDS011;68329;47.664;9.356;2023-03-04T16:07:28;46.47;;;42.08;;
78929;SDS011;68329;47.664;9.356;2023-03-04T16:09:55;25.77;;;23.75;;
78929;SDS011;68329;47.664;9.356;2023-03-04T16:12:22;38.00;;;33.90;;
78929;SDS011;68329;47.664;9.356;2023-03-04T16:14:49;27.98;;;22.48;;
78929;SDS011;68329;47.664;9.356;2023-03-04T16:17:15;22.25;;;19.23;;
78929;SDS011;68329;47.664;9.356;2023-03-04T16:19:41;18.45;;;15.43;;
78929;SDS011;68329;47.664;9.356;2023-03-04T16:22:14;15.25;;;13.63;;
78929;SDS011;68329;47.664;9.356;2023-03-04T16:24:41;16.58;;;13.48;;
78929;SDS011;68329;47.664;9.356;2023-03-04T16:27:10;14.50;;;11.40;;
78929;SDS011;68329;47.664;9.356;2023-03-04T16:29:37;14.90;;;11.50;;
78929;SDS011;68329;47.664;9.356;2023-03-04T16:34:29;12.82;;;9.55;;
78929;SDS011;68329;47.664;9.356;2023-03-04T16:36:56;12.90;;;9.30;;
78929;SDS011;68329;47.664;9.356;2023-03-04T16:41:48;15.20;;;9.15;;
78929;SDS011;68329;47.664;9.356;2023-03-04T16:44:14;14.43;;;9.85;;
78929;SDS011;68329;47.664;9.356;2023-03-04T16:46:40;13.55;;;9.57;;
78929;SDS011;68329;47.664;9.356;2023-03-04T16:49:06;10.98;;;9.05;;
78929;SDS011;68329;47.664;9.356;2023-03-04T16:51:33;12.93;;;8.70;;
78929;SDS011;68329;47.664;9.356;2023-03-04T16:54:00;13.93;;;9.70;;
78929;SDS011;68329;47.664;9.356;2023-03-04T16:56:26;11.85;;;8.98;;
78929;SDS011;68329;47.664;9.356;2023-03-04T16:58:52;11.40;;;8.80;;
78929;SDS011;68329;47.664;9.356;2023-03-04T17:03:45;12.07;;;8.38;;
78929;SDS011;68329;47.664;9.356;2023-03-04T17:06:11;10.65;;;8.15;;
78929;SDS011;68329;47.664;9.356;2023-03-04T17:08:37;11.65;;;8.73;;
78929;SDS011;68329;47.664;9.356;2023-03-04T17:11:03;13.18;;;9.07;;
78929;SDS011;68329;47.664;9.356;2023-03-04T17:15:59;51.28;;;36.03;;
78929;SDS011;68329;47.664;9.356;2023-03-04T17:18:26;52.67;;;35.25;;